Fenton, Michigan
Current Conditions -  °F | °C
As of 1:20 PM on Thursday 29 Jan 2015 (Local Time) from KFNT Reporting Station
Light Snow Light Snow  
Wind Chill: 26°   Ceiling: 2100
Heat Index: 32°   Visibility: 2.5mi
Dew Point: 27°   Wind: 7mph
Humidity: 82%   Direction: 300°WNW
Pressure: 29.73"   Gusts: NA
Location:  42.79°N, 83.7°W
Report Text: KFNT 291820Z 30006KT 2 1/2SM -SN SCT015 OVC021 00/M03 A2973 RMK AO2 SNB15 P0000 I1001 T00001028
Loading
Personal Weather Stations






























Interactive Weather Map New forecast layout! Learn more

10-Day Weather Forecast

Advertisements
Track Severe Weather on mobile